Campo Grande, Argentina
Current Conditions -  °F | °C
As of 11:00 AM on Thursday 29 Jan 2015 (Local Time) from SARC Reporting Station
Drizzle Drizzle  
Wind Chill: 73°   Ceiling: 400
Heat Index: 73°   Visibility: 6mi
Dew Point: 68°   Wind: 14mph
Humidity: 83%   Direction: 160°SSE
Pressure: 29.94"   Gusts: NA
Location:  27.52°S, 58.3°W
Report Text: SARC 291400Z 16012KT 9000 -DZ BKN004 OVC012 23/20 Q1014
Loading
Personal Weather Stations






























Interactive Weather Map New forecast layout! Learn more

10-Day Weather Forecast

Advertisements
Track Severe Weather on mobile